createdAt,value
2023-06-11T00:02:25.781Z,23.24
2023-06-11T00:07:29.434Z,23.31
2023-06-11T00:12:33.938Z,22.85
2023-06-11T00:17:39.824Z,23.28
2023-06-11T00:22:44.424Z,23.08
2023-06-11T00:27:47.261Z,23.05
2023-06-11T00:32:51.918Z,22.76
2023-06-11T00:37:56.174Z,22.97
2023-06-11T00:42:59.042Z,22.40
2023-06-11T00:48:03.438Z,22.52
2023-06-11T00:53:06.434Z,22.16
2023-06-11T00:58:17.592Z,22.05
2023-06-11T01:03:28.182Z,22.36
2023-06-11T01:08:34.223Z,22.08
2023-06-11T01:13:38.589Z,22.05
2023-06-11T01:18:50.056Z,21.73
2023-06-11T01:24:01.462Z,21.87
2023-06-11T01:29:10.452Z,22.02
2023-06-11T01:34:15.470Z,21.68
2023-06-11T01:39:20.204Z,22.11
2023-06-11T01:44:40.755Z,21.91
2023-06-11T01:49:43.967Z,21.55
2023-06-11T01:54:46.773Z,21.87
2023-06-11T01:59:51.529Z,21.84
2023-06-11T02:04:54.319Z,21.97
2023-06-11T02:09:57.092Z,21.92
2023-06-11T02:15:01.245Z,21.93
2023-06-11T02:20:07.077Z,21.74
2023-06-11T02:25:12.819Z,21.41
2023-06-11T02:30:17.936Z,21.73
2023-06-11T02:35:20.721Z,21.62
2023-06-11T02:40:24.269Z,21.17
2023-06-11T02:45:28.428Z,21.34
2023-06-11T02:50:31.233Z,21.38
2023-06-11T02:55:58.305Z,21.41
2023-06-11T03:01:02.651Z,21.06
2023-06-11T03:06:05.562Z,21.23
2023-06-11T03:11:09.162Z,21.15
2023-06-11T03:16:16.761Z,21.17
2023-06-11T03:21:19.869Z,20.86
2023-06-11T03:26:22.691Z,21.00
2023-06-11T03:31:28.209Z,21.21
2023-06-11T03:36:31.850Z,21.08
2023-06-11T03:41:38.498Z,20.86
2023-06-11T03:46:43.573Z,20.86
2023-06-11T03:51:49.706Z,21.02
2023-06-11T03:56:52.715Z,20.88
2023-06-11T04:01:57.026Z,20.82
2023-06-11T04:07:03.125Z,20.93
2023-06-11T04:12:11.009Z,20.99
2023-06-11T04:17:36.150Z,21.07
2023-06-11T04:23:00.383Z,20.92
2023-06-11T04:28:24.287Z,21.33
2023-06-11T04:33:48.966Z,21.38
2023-06-11T04:39:12.026Z,21.51
2023-06-11T04:44:37.586Z,21.51
2023-06-11T04:50:04.370Z,21.66
2023-06-11T04:55:28.158Z,21.65
2023-06-11T05:00:38.916Z,21.71
2023-06-11T05:05:43.693Z,21.93
2023-06-11T05:10:49.077Z,21.73
2023-06-11T05:15:59.033Z,21.39
2023-06-11T05:21:33.261Z,20.23
2023-06-11T05:26:46.950Z,22.31
2023-06-11T05:31:50.313Z,22.26
2023-06-11T05:36:54.985Z,22.56
2023-06-11T05:42:00.298Z,22.61
2023-06-11T05:47:10.128Z,22.74
2023-06-11T05:52:22.432Z,22.49
2023-06-11T05:57:28.666Z,23.00
2023-06-11T06:02:36.248Z,22.93
2023-06-11T06:07:40.653Z,22.08
2023-06-11T06:12:43.505Z,23.01
2023-06-11T06:17:48.083Z,23.23
2023-06-11T06:22:59.396Z,23.39
2023-06-11T06:28:02.684Z,23.46
2023-06-11T06:33:06.583Z,23.86
2023-06-11T06:38:11.319Z,24.08
2023-06-11T06:43:16.230Z,24.22
2023-06-11T06:48:20.611Z,24.10
2023-06-11T06:53:24.908Z,24.46
2023-06-11T06:58:28.117Z,24.60
2023-06-11T07:03:31.275Z,24.69
2023-06-11T07:08:36.374Z,24.46
2023-06-11T07:13:39.679Z,24.54
2023-06-11T07:18:43.658Z,24.30
2023-06-11T07:23:47.814Z,24.71
2023-06-11T07:28:51.650Z,24.77
2023-06-11T07:33:55.195Z,25.24
2023-06-11T07:39:02.199Z,25.11
2023-06-11T07:44:05.342Z,25.48
2023-06-11T07:49:09.637Z,25.60
2023-06-11T07:54:15.564Z,25.39
2023-06-11T07:59:18.759Z,25.49
2023-06-11T08:04:21.876Z,25.82
2023-06-11T08:09:28.329Z,25.89
2023-06-11T08:14:34.228Z,25.62
2023-06-11T08:19:37.056Z,26.04
2023-06-11T08:24:41.728Z,25.40
2023-06-11T08:29:49.911Z,26.14
2023-06-11T08:34:53.669Z,25.98
2023-06-11T08:39:57.806Z,26.34
2023-06-11T08:45:00.847Z,25.94
2023-06-11T08:50:05.326Z,25.57
2023-06-11T08:55:10.934Z,26.51
2023-06-11T09:00:15.893Z,25.52
2023-06-11T09:05:18.914Z,25.81
2023-06-11T09:10:24.080Z,25.86
2023-06-11T09:15:33.273Z,26.04
2023-06-11T09:20:36.936Z,26.55
2023-06-11T09:25:42.662Z,26.86
2023-06-11T09:30:54.960Z,26.96
2023-06-11T09:35:57.782Z,26.53
2023-06-11T09:41:06.157Z,26.88
2023-06-11T09:46:10.118Z,26.99
2023-06-11T09:51:24.848Z,25.42
2023-06-11T09:56:30.080Z,27.27
2023-06-11T10:01:34.575Z,26.80
2023-06-11T10:06:42.107Z,27.35
2023-06-11T10:11:47.689Z,27.13
2023-06-11T10:16:52.025Z,27.40
2023-06-11T10:22:03.370Z,27.18
2023-06-11T10:27:09.859Z,27.46
2023-06-11T10:32:17.369Z,27.55
2023-06-11T10:37:30.410Z,27.39
2023-06-11T10:42:39.359Z,27.66
2023-06-11T10:47:44.427Z,27.70
2023-06-11T10:52:51.598Z,27.76
2023-06-11T10:57:56.284Z,27.79
2023-06-11T11:03:00.729Z,27.59
2023-06-11T11:08:03.875Z,27.79
2023-06-11T11:13:07.954Z,27.71
2023-06-11T11:18:10.827Z,27.43
2023-06-11T11:23:13.738Z,28.04
2023-06-11T11:28:18.913Z,28.26
2023-06-11T11:33:22.151Z,28.30
2023-06-11T11:38:25.121Z,28.59
2023-06-11T11:43:40.319Z,28.78
2023-06-11T11:48:44.327Z,28.47
2023-06-11T11:53:48.283Z,29.12
2023-06-11T11:58:53.707Z,29.15
2023-06-11T12:04:02.029Z,29.33
2023-06-11T12:09:06.617Z,29.73
2023-06-11T12:14:11.032Z,29.40
2023-06-11T12:19:23.212Z,30.14
2023-06-11T12:24:27.978Z,30.29
2023-06-11T12:29:32.621Z,30.50
2023-06-11T12:34:35.372Z,30.59
2023-06-11T12:39:38.352Z,30.91
2023-06-11T12:44:43.482Z,31.15
2023-06-11T12:49:46.621Z,31.12
2023-06-11T12:54:49.415Z,31.45
2023-06-11T12:59:53.524Z,31.30
2023-06-11T13:04:58.483Z,31.12
2023-06-11T13:10:01.756Z,30.70
2023-06-11T13:15:08.468Z,30.53
2023-06-11T13:20:12.432Z,30.78
2023-06-11T13:25:16.758Z,30.82
2023-06-11T13:30:21.376Z,30.21
2023-06-11T13:35:24.303Z,30.55
2023-06-11T13:40:27.157Z,31.65
2023-06-11T13:45:31.354Z,32.52
2023-06-11T13:50:34.594Z,33.40
2023-06-11T13:55:37.534Z,34.20
2023-06-11T14:00:42.292Z,34.72
2023-06-11T14:05:45.143Z,35.13
2023-06-11T14:10:54.008Z,35.61
2023-06-11T14:15:58.803Z,36.26
2023-06-11T14:21:01.687Z,36.58
2023-06-11T14:26:04.448Z,36.45
2023-06-11T14:31:08.492Z,36.33
2023-06-11T14:36:11.515Z,35.58
2023-06-11T14:41:14.460Z,34.69
2023-06-11T14:46:18.952Z,34.08
2023-06-11T14:51:24.082Z,33.79
2023-06-11T14:56:28.186Z,33.42
2023-06-11T15:01:32.640Z,32.76
2023-06-11T15:06:35.520Z,31.97
2023-06-11T15:11:38.406Z,31.77
2023-06-11T15:16:45.363Z,31.56
2023-06-11T15:21:48.363Z,31.69
2023-06-11T15:26:51.137Z,31.33
2023-06-11T15:31:57.970Z,31.37
2023-06-11T15:37:01.144Z,31.33
2023-06-11T15:42:04.308Z,30.99
2023-06-11T15:47:08.656Z,30.71
2023-06-11T15:52:11.355Z,30.68
2023-06-11T15:57:14.024Z,30.69
2023-06-11T16:02:18.290Z,30.65
2023-06-11T16:07:23.947Z,30.54
2023-06-11T16:12:26.636Z,30.60
2023-06-11T16:17:32.207Z,30.48
2023-06-11T16:22:41.153Z,30.22
2023-06-11T16:27:45.550Z,29.91
2023-06-11T16:32:49.591Z,30.02
2023-06-11T16:37:52.327Z,29.89
2023-06-11T16:42:55.207Z,29.87
2023-06-11T16:48:01.429Z,29.78
2023-06-11T16:53:09.802Z,29.66
2023-06-11T16:58:12.646Z,29.58
2023-06-11T17:03:20.054Z,29.44
2023-06-11T17:08:24.945Z,29.36
2023-06-11T17:13:28.102Z,29.27
2023-06-11T17:18:37.223Z,28.96
2023-06-11T17:29:20.032Z,29.11
2023-06-11T17:34:45.874Z,29.07
2023-06-11T17:39:57.183Z,28.75
2023-06-11T17:44:59.995Z,28.86
2023-06-11T17:50:07.452Z,27.74
2023-06-11T17:55:14.538Z,28.70
2023-06-11T18:00:18.738Z,28.23
2023-06-11T18:05:25.217Z,28.56
2023-06-11T18:10:28.189Z,28.38
2023-06-11T18:15:34.557Z,28.42
2023-06-11T18:20:39.635Z,28.26
2023-06-11T18:25:42.335Z,27.97
2023-06-11T18:30:45.476Z,28.14
2023-06-11T18:35:49.704Z,28.12
2023-06-11T18:40:52.613Z,27.59
2023-06-11T18:45:55.956Z,27.97
2023-06-11T21:56:10.488Z,25.86
2023-06-11T22:01:13.184Z,25.75
2023-06-11T22:06:15.966Z,25.67
2023-06-11T22:11:20.375Z,25.64
2023-06-11T22:16:23.864Z,25.58
2023-06-11T22:21:26.855Z,25.46
2023-06-11T22:26:31.412Z,25.38
2023-06-11T22:31:34.731Z,25.31
2023-06-11T22:36:37.611Z,25.11
2023-06-11T22:41:41.875Z,25.00
2023-06-11T22:46:44.571Z,24.88
2023-06-11T22:51:48.101Z,24.82
2023-06-11T22:56:52.848Z,24.44
2023-06-11T23:01:55.801Z,24.24
2023-06-11T23:06:58.986Z,23.90
2023-06-11T23:12:03.217Z,23.99
2023-06-11T23:17:10.441Z,23.88
2023-06-11T23:22:13.379Z,23.55
2023-06-11T23:27:18.488Z,23.45
2023-06-11T23:32:21.281Z,23.32
2023-06-11T23:37:24.077Z,23.20
2023-06-11T23:42:28.072Z,22.82
2023-06-11T23:47:32.482Z,23.07
2023-06-11T23:52:35.293Z,22.84
2023-06-11T23:57:40.341Z,22.75
